»·PEaware :: N832PW KSNA-KBUR

N832PW :: KSNA-KBUR

FLIGHT INFORMATION

Flight Status: Arrived
Operator: Privately registered:
United States
More flights under this callsign
Pilot: Justin W. (21172)
Aircraft: PIPER PA-28 CHEROKEE ARCHER
(PA28)
More flights by this aircraft type
Origin: KSNA John Wayne-Orange Co
United States
Destination: KBUR Bob Hope-Burbank
United States
More flights between these airports :: More routes between these airports
Route: +SLI V23 POPPR SMO125 SMO SMO311 SILEX
File this flight plan on PilotEdge
Remarks: I-3
Altitude:
(Current/Filed)
4,000ft
Speed:
(Current/Filed)
120kts
Departed: 09-Feb-19 08:12 PM
Arrived: 09-Feb-19 08:51 PM
Distance/Time
Traveled:
40nm/0:39
Distance/Time
To Go:
Arrived

Flight Plot

Page will automatically refresh every two minutes.


Map Options




Map Legend


Flown Route
Filed Route
Departure Airport
Arrival Airport
Navaid (VOR, NDB)
Fix

Horizontal Profiles

Position Reports

Time Latitude Longitude Heading Altitude Ground
Speed
09-Feb-19 19:45 33.675262 -117.871309 220 59ft 0kts
09-Feb-19 19:46 33.675262 -117.871309 220 59ft 0kts
09-Feb-19 19:47 33.675262 -117.871309 220 59ft 0kts
09-Feb-19 19:48 33.675262 -117.871309 220 59ft 0kts
09-Feb-19 19:49 33.675262 -117.871309 220 59ft 0kts
09-Feb-19 19:50 33.675262 -117.871309 220 59ft 0kts
09-Feb-19 19:51 33.675262 -117.871309 220 59ft 0kts
09-Feb-19 19:52 33.675262 -117.871309 220 59ft 0kts
09-Feb-19 19:53 33.675262 -117.871309 220 59ft 0kts
09-Feb-19 19:54 33.675260 -117.871311 220 59ft 0kts
09-Feb-19 19:55 33.675256 -117.871314 219 59ft 0kts
09-Feb-19 19:56 33.675253 -117.871318 219 59ft 0kts
09-Feb-19 19:57 33.675250 -117.871321 219 59ft 0kts
09-Feb-19 19:58 33.675246 -117.871325 219 59ft 0kts
09-Feb-19 19:59 33.675243 -117.871328 219 59ft 0kts
09-Feb-19 20:00 33.675239 -117.871332 219 59ft 0kts
09-Feb-19 20:01 33.675235 -117.871335 219 59ft 0kts
09-Feb-19 20:02 33.675232 -117.871339 219 59ft 0kts
09-Feb-19 20:03 33.675228 -117.871342 219 59ft 0kts
09-Feb-19 20:04 33.675225 -117.871346 219 59ft 0kts
09-Feb-19 20:05 33.675221 -117.871349 219 59ft 0kts
09-Feb-19 20:06 33.674704 -117.871408 49 59ft 8kts
09-Feb-19 20:07 33.678627 -117.868583 27 59ft 11kts
09-Feb-19 20:08 33.680796 -117.866383 117 59ft 0kts
09-Feb-19 20:09 33.680793 -117.866376 117 59ft 0kts
09-Feb-19 20:11 33.680207 -117.865973 207 59ft 0kts
09-Feb-19 20:12 33.669568 -117.873240 220 636ft 76kts
09-Feb-19 20:13 33.655017 -117.893328 228 1923ft 80kts
09-Feb-19 20:14 33.649049 -117.915753 313 3145ft 82kts
09-Feb-19 20:15 33.667281 -117.934116 320 4051ft 102kts
09-Feb-19 20:16 33.692695 -117.957338 318 4036ft 118kts
09-Feb-19 20:17 33.716489 -117.984537 312 4037ft 116kts
09-Feb-19 20:18 33.739909 -118.011656 315 4055ft 117kts
09-Feb-19 20:19 33.765217 -118.036925 318 4015ft 119kts
09-Feb-19 20:20 33.785358 -118.066357 271 3958ft 115kts
09-Feb-19 20:21 33.791606 -118.103577 283 4027ft 116kts
09-Feb-19 20:22 33.800142 -118.140896 284 4037ft 114kts
09-Feb-19 20:23 33.809121 -118.177931 286 4020ft 116kts
09-Feb-19 20:24 33.818686 -118.214886 286 4026ft 115kts
09-Feb-19 20:25 33.826992 -118.252103 281 4042ft 115kts
09-Feb-19 20:26 33.836053 -118.289213 305 4004ft 118kts
09-Feb-19 20:27 33.860604 -118.315399 317 3999ft 118kts
09-Feb-19 20:28 33.886450 -118.339583 322 4007ft 117kts
09-Feb-19 20:29 33.912582 -118.363447 320 4012ft 117kts
09-Feb-19 20:29 33.933734 -118.384303 318 4012ft 117kts
09-Feb-19 20:31 33.963446 -118.412955 316 4016ft 117kts
09-Feb-19 20:32 33.989482 -118.436766 324 4006ft 118kts
09-Feb-19 20:32 34.012758 -118.454719 329 3950ft 120kts
09-Feb-19 20:33 34.040998 -118.474170 322 4035ft 116kts
09-Feb-19 20:34 34.068805 -118.494778 328 4049ft 117kts
09-Feb-19 20:35 34.097257 -118.514603 327 4072ft 117kts
09-Feb-19 20:36 34.125750 -118.534774 328 4018ft 120kts
09-Feb-19 20:37 34.153554 -118.556989 322 3712ft 116kts
09-Feb-19 20:38 34.181118 -118.579078 323 3021ft 117kts
09-Feb-19 20:39 34.208790 -118.599613 329 2984ft 116kts
09-Feb-19 20:40 34.228646 -118.579996 107 3013ft 120kts
09-Feb-19 20:41 34.200668 -118.560986 160 2976ft 120kts
09-Feb-19 20:42 34.176127 -118.568918 253 2996ft 111kts
09-Feb-19 20:43 34.181298 -118.598345 3 2992ft 117kts
09-Feb-19 20:44 34.200175 -118.566535 75 3019ft 118kts
09-Feb-19 20:45 34.200362 -118.525708 94 2987ft 123kts
09-Feb-19 20:46 34.199054 -118.484944 89 2705ft 118kts
09-Feb-19 20:47 34.199164 -118.446224 93 1935ft 112kts
09-Feb-19 20:48 34.198602 -118.412379 91 1488ft 97kts
09-Feb-19 20:49 34.198157 -118.385911 91 1054ft 67kts
09-Feb-19 20:50 34.197842 -118.365087 92 724ft 38kts
09-Feb-19 20:51 34.198526 -118.360309 6 724ft 3kts
09-Feb-19 20:52 34.199768 -118.364610 0 724ft 11kts
09-Feb-19 20:53 34.200193 -118.364599 356 724ft 0kts

Navigation Log

Ident Type
Flight plan parsing failed, navigation log unavailable